CNN3 weather

Shelburne / Fisher Field
Shelburne, Ontario, Canada

Public forecast

Using degrees Celsius for public forecast. Weather courtesy of forecast.io.

Closest aviation weather report (METAR) to Shelburne / Fisher Field

Closest report is CFB Borden, 19.3 nm (35.8 km) NE. Retrieved 2019/11/17 08:35 UTC (11 minutes ago):

CYBN 170835Z AUTO 00000KT 9SM OVC013 M13/M15 A3033

Closest aviation forecast (TAF) to Shelburne / Fisher Field

Forecast is more than 12 hours old.

Closest forecast is CFB Borden, 19.3 nm (35.8 km) NE. Retrieved 2019/11/16 18:33 UTC (14 hours ago):

TAF TAF CYBN 161730Z 1618/1706 14005KT P6SM FEW260 FM170300 14005KT P6SM FEW030 SCT160 RMK FCST BASED ON AUTO OBS NXT FCST BY 170000Z